Time;durP1;ratioP1;P1;durP2;ratioP2;P2;SDS_P1;SDS_P2;PMS_P1;PMS_P2;Temp;Humidity;BMP_temperature;BMP_pressure;BME280_temperature;BME280_humidity;BME280_pressure;Samples;Min_cycle;Max_cycle;Signal;HPM_P1;HPM_P2
2022/05/30 00:00:22;;;;;;;10.35;9.35;;;;;;;12.21;93.49;93811.52;1717235;82;20938;-50
2022/05/30 00:02:49;;;;;;;12.40;10.80;;;;;;;12.19;93.25;93812.63;1711130;83;20977;-50
2022/05/30 00:05:16;;;;;;;10.05;8.95;;;;;;;12.16;93.12;93817.73;1714662;83;20895;-49
2022/05/30 00:07:42;;;;;;;14.98;11.22;;;;;;;12.15;93.26;93814.83;1712924;83;21183;-50
2022/05/30 00:10:11;;;;;;;12.45;10.30;;;;;;;12.12;93.36;93810.88;1690913;83;20913;-48
2022/05/30 00:12:39;;;;;;;11.43;8.93;;;;;;;12.12;93.96;93807.49;1712439;83;20866;-49
2022/05/30 00:15:09;;;;;;;12.55;9.15;;;;;;;12.14;93.64;93799.53;1710851;83;21434;-49
2022/05/30 00:17:35;;;;;;;11.57;8.78;;;;;;;12.13;93.52;93793.11;1711517;83;20914;-49
2022/05/30 00:20:03;;;;;;;13.80;8.83;;;;;;;12.10;93.56;93792.69;1714473;83;21222;-49
2022/05/30 00:22:30;;;;;;;13.15;10.78;;;;;;;12.09;93.83;93796.69;1710115;83;20922;-50
2022/05/30 00:24:57;;;;;;;13.43;10.28;;;;;;;11.99;93.77;93805.69;1711708;83;20963;-50
2022/05/30 00:27:24;;;;;;;11.90;8.40;;;;;;;11.94;94.20;93804.97;1711864;83;21046;-50
2022/05/30 00:29:50;;;;;;;10.72;8.25;;;;;;;11.93;94.32;93809.59;1708640;83;21180;-50
2022/05/30 00:32:17;;;;;;;9.18;7.47;;;;;;;11.93;94.23;93799.31;1688324;83;21225;-50
2022/05/30 00:34:44;;;;;;;10.20;7.22;;;;;;;11.92;94.38;93796.42;1710009;83;21029;-50
2022/05/30 00:37:11;;;;;;;8.00;7.15;;;;;;;11.91;94.35;93799.04;1713040;83;20867;-51
2022/05/30 00:39:38;;;;;;;9.13;6.83;;;;;;;11.88;94.59;93797.88;1707215;83;20895;-50
2022/05/30 00:42:17;;;;;;;7.95;7.00;;;;;;;11.90;95.12;93790.63;1713071;83;20879;-50
2022/05/30 00:44:45;;;;;;;6.67;6.03;;;;;;;11.92;94.94;93797.05;1690237;83;21101;-50
2022/05/30 00:47:13;;;;;;;7.37;6.65;;;;;;;11.90;94.54;93793.39;1710898;83;20931;-50
2022/05/30 00:49:43;;;;;;;9.20;7.15;;;;;;;11.86;94.98;93792.09;1711574;83;20847;-50
2022/05/30 00:52:14;;;;;;;7.67;6.92;;;;;;;11.89;95.27;93784.98;1710586;82;21453;-49
2022/05/30 00:54:55;;;;;;;8.98;7.10;;;;;;;11.97;95.71;93781.21;1707066;83;21019;-49
2022/05/30 00:57:23;;;;;;;8.05;7.05;;;;;;;12.05;95.58;93769.31;1719379;82;21134;-49
2022/05/30 01:00:00;;;;;;;7.45;6.75;;;;;;;12.11;95.17;93761.87;1733897;82;20982;-49
2022/05/30 01:02:31;;;;;;;7.20;6.50;;;;;;;12.17;94.83;93764.70;1735029;82;20844;-49
2022/05/30 01:07:45;;;;;;;7.25;6.53;;;;;;;12.17;94.08;93748.94;1735503;82;21407;-50
2022/05/30 01:10:14;;;;;;;9.85;7.00;;;;;;;12.15;94.04;93750.04;1716224;82;21169;-50
2022/05/30 01:12:49;;;;;;;6.45;5.70;;;;;;;12.10;93.80;93742.43;1734314;82;20872;-50
2022/05/30 01:15:17;;;;;;;6.17;5.58;;;;;;;12.09;93.82;93742.30;1732928;82;20948;-49
2022/05/30 01:18:20;;;;;;;6.62;5.22;;;;;;;12.06;93.79;93739.12;1733172;82;20848;-50
2022/05/30 01:20:54;;;;;;;;;;;;;;;12.00;93.82;93723.14;1736652;82;20896;-49
2022/05/30 01:23:33;;;;;;;;;;;;;;;11.96;94.04;93725.95;1740019;82;21182;-49
2022/05/30 01:26:32;;;;;;;7.15;6.28;;;;;;;11.90;94.23;93721.73;1711497;82;20091;-49
2022/05/30 01:29:12;;;;;;;5.50;5.00;;;;;;;11.84;94.74;93715.39;1738232;82;20959;-50
2022/05/30 01:31:39;;;;;;;8.73;5.33;;;;;;;11.89;95.12;93717.45;1734625;82;20953;-49
2022/05/30 01:34:06;;;;;;;6.17;5.58;;;;;;;11.90;94.72;93716.85;1738626;82;20887;-49
2022/05/30 01:36:34;;;;;;;7.83;6.25;;;;;;;11.91;94.45;93716.36;1733141;82;21240;-50
2022/05/30 01:39:02;;;;;;;7.00;6.30;;;;;;;11.87;94.67;93708.91;1713707;82;20906;-50
2022/05/30 01:41:34;;;;;;;6.85;5.70;;;;;;;11.87;94.83;93708.91;1727325;82;20971;-49
2022/05/30 01:44:01;;;;;;;6.22;5.60;;;;;;;11.91;95.03;93708.73;1737195;82;21152;-49
2022/05/30 01:46:27;;;;;;;6.10;5.50;;;;;;;11.96;94.91;93711.56;1734371;82;20943;-49
2022/05/30 01:48:54;;;;;;;6.83;6.22;;;;;;;11.96;94.83;93703.30;1739507;82;21158;-49
2022/05/30 01:51:22;;;;;;;5.85;5.33;;;;;;;12.01;95.01;93699.84;1738279;81;20963;-49
2022/05/30 01:53:51;;;;;;;6.87;6.10;;;;;;;12.03;95.15;93695.98;1733735;82;20983;-49
2022/05/30 01:56:21;;;;;;;6.53;5.78;;;;;;;12.03;95.10;93698.74;1735310;82;20963;-50
2022/05/30 01:58:48;;;;;;;5.83;5.22;;;;;;;12.05;94.86;93694.88;1735380;82;20922;-50
2022/05/30 02:01:26;;;;;;;5.83;5.30;;;;;;;12.07;94.91;93690.28;1737349;82;21197;-50
2022/05/30 02:03:53;;;;;;;7.00;5.05;;;;;;;12.06;94.49;93683.99;1718179;82;21442;-49
2022/05/30 02:06:21;;;;;;;6.67;5.30;;;;;;;12.00;94.39;93692.81;1710857;82;20990;-50
2022/05/30 02:08:48;;;;;;;6.12;5.62;;;;;;;11.93;94.72;93682.81;1734553;82;20844;-49
2022/05/30 02:11:16;;;;;;;6.05;5.47;;;;;;;11.92;94.90;93681.30;1734026;82;21451;-50
2022/05/30 02:13:43;;;;;;;6.83;5.50;;;;;;;11.92;95.14;93677.91;1712334;82;21187;-49
2022/05/30 02:19:00;;;;;;;5.87;5.28;;;;;;;12.08;95.78;93678.75;1733491;82;20919;-49
2022/05/30 02:21:27;;;;;;;6.40;5.80;;;;;;;12.16;95.77;93677.11;1729233;82;20952;-49
2022/05/30 02:23:53;;;;;;;5.50;4.67;;;;;;;12.25;95.46;93683.11;1735541;82;21430;-49
2022/05/30 02:26:20;;;;;;;4.72;4.33;;;;;;;12.28;95.01;93674.61;1731386;82;21674;-49
2022/05/30 02:28:48;;;;;;;6.28;4.33;;;;;;;12.35;94.67;93672.06;1714789;82;20959;-50
2022/05/30 02:31:17;;;;;;;5.25;4.70;;;;;;;12.38;93.81;93669.70;1714013;82;21420;-50
2022/05/30 02:36:40;;;;;;;5.60;4.62;;;;;;;12.34;93.07;93671.31;1732220;82;20955;-50
2022/05/30 02:39:10;;;;;;;5.12;4.62;;;;;;;12.27;92.78;93675.11;1733450;82;21448;-48
2022/05/30 02:41:40;;;;;;;5.45;4.95;;;;;;;12.25;93.09;93678.34;1732989;82;20908;-49
2022/05/30 02:44:08;;;;;;;7.08;4.75;;;;;;;12.24;93.17;93678.20;1712741;82;20966;-50
2022/05/30 02:46:35;;;;;;;5.75;5.22;;;;;;;12.26;93.29;93674.34;1734319;82;21399;-48
2022/05/30 02:49:02;;;;;;;5.37;4.87;;;;;;;12.28;93.51;93664.95;1736640;82;20891;-49
2022/05/30 02:51:29;;;;;;;7.28;4.92;;;;;;;12.28;93.32;93675.98;1688521;82;21187;-49
2022/05/30 02:53:56;;;;;;;6.62;6.03;;;;;;;12.32;93.99;93677.94;1735863;82;20902;-49
2022/05/30 02:56:25;;;;;;;5.55;5.15;;;;;;;12.39;93.91;93680.27;1737700;82;20879;-50
2022/05/30 02:58:52;;;;;;;7.10;5.30;;;;;;;12.42;93.64;93672.40;1733447;82;20931;-50
2022/05/30 03:01:19;;;;;;;7.55;5.40;;;;;;;12.40;93.46;93672.13;1737616;82;21032;-49
2022/05/30 03:03:46;;;;;;;6.10;4.67;;;;;;;12.43;93.91;93671.79;1736341;82;21216;-50
2022/05/30 03:06:13;;;;;;;4.75;4.35;;;;;;;12.51;94.05;93672.88;1734971;82;21388;-50
2022/05/30 03:08:39;;;;;;;5.42;4.95;;;;;;;12.52;93.54;93677.14;1733854;82;20891;-49
2022/05/30 03:11:08;;;;;;;4.90;4.40;;;;;;;12.52;93.23;93682.05;1736003;82;20974;-50
2022/05/30 03:13:37;;;;;;;4.80;4.42;;;;;;;12.51;92.70;93689.42;1737484;82;21419;-50
2022/05/30 03:16:05;;;;;;;4.78;4.30;;;;;;;12.49;92.55;93689.90;1740283;82;21064;-49
2022/05/30 03:18:32;;;;;;;5.05;4.55;;;;;;;12.47;92.78;93695.78;1736916;82;20976;-49
2022/05/30 03:20:59;;;;;;;6.50;4.50;;;;;;;12.48;92.88;93694.53;1734269;82;20848;-49
2022/05/30 03:23:26;;;;;;;4.75;4.35;;;;;;;12.50;92.68;93687.91;1732851;82;20852;-50
2022/05/30 03:26:07;;;;;;;4.78;4.45;;;;;;;12.53;92.66;93687.70;1732857;82;20919;-49
2022/05/30 03:28:34;;;;;;;5.67;5.12;;;;;;;12.57;92.50;93689.63;1732830;82;21101;-49
2022/05/30 03:31:02;;;;;;;5.90;5.40;;;;;;;12.58;92.65;93682.26;1738164;82;20831;-49
2022/05/30 03:33:30;;;;;;;5.45;5.05;;;;;;;12.60;92.28;93685.28;1716538;82;20975;-49
2022/05/30 03:35:57;;;;;;;5.85;5.28;;;;;;;12.59;92.11;93677.48;1732829;82;20951;-51
2022/05/30 03:38:43;;;;;;;6.40;4.83;;;;;;;12.57;91.70;93677.95;1721511;82;21426;-49
2022/05/30 03:41:27;;;;;;;8.90;5.78;;;;;;;12.53;91.78;93674.66;1738258;82;21092;-49
2022/05/30 03:44:05;;;;;;;7.35;6.05;;;;;;;12.49;91.98;93671.22;1713511;82;20920;-49
2022/05/30 03:46:31;;;;;;;8.70;6.25;;;;;;;12.48;92.28;93667.69;1736966;82;20956;-49
2022/05/30 03:49:00;;;;;;;9.95;5.85;;;;;;;12.49;92.10;93666.45;1736687;82;20995;-49
2022/05/30 03:51:26;;;;;;;5.80;5.03;;;;;;;12.48;92.08;93664.94;1739249;82;21003;-49
2022/05/30 03:53:53;;;;;;;5.00;4.60;;;;;;;12.50;92.41;93667.99;1740923;81;21184;-48
2022/05/30 03:56:20;;;;;;;5.12;4.45;;;;;;;12.56;92.47;93671.56;1741055;82;20915;-49
2022/05/30 03:58:47;;;;;;;5.42;4.50;;;;;;;12.61;92.56;93674.99;1734572;82;20966;-50
2022/05/30 04:01:13;;;;;;;4.30;4.00;;;;;;;12.71;92.49;93676.37;1733367;82;20951;-50
2022/05/30 04:03:40;;;;;;;5.80;4.65;;;;;;;12.74;91.81;93683.03;1737115;82;20975;-49
2022/05/30 04:06:08;;;;;;;5.08;4.53;;;;;;;12.76;91.58;93686.70;1740335;82;21810;-49
2022/05/30 04:08:35;;;;;;;8.18;4.60;;;;;;;12.76;91.34;93686.70;1739891;82;20951;-49
2022/05/30 04:11:20;;;;;;;5.58;5.00;;;;;;;12.79;91.73;93682.95;1736084;82;20939;-55
2022/05/30 04:13:54;;;;;;;5.58;5.10;;;;;;;12.81;91.68;93688.75;1710277;82;21432;-51
2022/05/30 04:16:22;;;;;;;5.50;5.00;;;;;;;12.79;91.73;93685.72;1721757;82;20888;-51
2022/05/30 04:18:50;;;;;;;5.92;4.90;;;;;;;12.77;91.72;93682.08;1734402;82;21167;-51
2022/05/30 04:21:16;;;;;;;4.92;4.42;;;;;;;12.79;91.88;93687.09;1735627;82;20987;-53
2022/05/30 04:23:43;;;;;;;4.87;4.45;;;;;;;12.82;92.09;93694.41;1716864;82;20967;-52
2022/05/30 04:26:14;;;;;;;4.70;4.30;;;;;;;12.89;91.99;93695.37;1732682;82;20999;-52
2022/05/30 04:28:43;;;;;;;5.08;4.67;;;;;;;12.96;91.63;93689.44;1737689;82;20987;-52
2022/05/30 04:31:28;;;;;;;5.60;5.10;;;;;;;12.94;90.76;93687.15;1736054;82;21214;-52
2022/05/30 04:33:54;;;;;;;5.17;4.78;;;;;;;12.84;90.46;93682.25;1732703;82;20987;-54
2022/05/30 04:36:21;;;;;;;5.90;4.58;;;;;;;12.78;90.66;93684.20;1714211;82;21057;-55
2022/05/30 04:38:50;;;;;;;4.97;4.58;;;;;;;12.77;91.15;93692.34;1733532;82;20955;-55
2022/05/30 04:41:34;;;;;;;9.00;4.70;;;;;;;12.80;91.33;93691.38;1716791;82;21486;-52
2022/05/30 04:44:15;;;;;;;5.55;4.95;;;;;;;12.81;91.25;93692.89;1705043;82;21717;-49
2022/05/30 04:46:56;;;;;;;4.50;4.10;;;;;;;12.81;91.53;93695.64;1727206;82;21407;-50
2022/05/30 04:49:24;;;;;;;5.00;4.50;;;;;;;12.90;91.97;93696.88;1736222;82;20907;-50
2022/05/30 04:51:51;;;;;;;5.28;4.10;;;;;;;12.97;91.41;93703.38;1734463;82;21069;-50
2022/05/30 04:54:19;;;;;;;6.90;6.10;;;;;;;13.03;91.18;93711.08;1735850;82;21435;-51
2022/05/30 04:56:51;;;;;;;5.50;4.95;;;;;;;13.07;90.92;93706.12;1727931;82;21416;-51
2022/05/30 04:59:26;;;;;;;4.58;4.28;;;;;;;13.16;91.11;93709.47;1731460;82;21452;-50
2022/05/30 05:01:55;;;;;;;4.28;3.87;;;;;;;13.25;90.48;93710.66;1731586;82;20936;-51
2022/05/30 05:04:23;;;;;;;5.35;4.42;;;;;;;13.35;90.12;93715.39;1733931;82;20963;-51
2022/05/30 05:06:50;;;;;;;6.40;5.80;;;;;;;13.41;90.04;93713.45;1736994;82;21412;-53
2022/05/30 05:09:40;;;;;;;5.55;5.05;;;;;;;13.49;90.53;93707.61;1718245;82;21111;-53
2022/05/30 05:12:16;;;;;;;4.35;4.05;;;;;;;13.60;90.34;93703.56;1728824;82;20876;-54
2022/05/30 05:15:02;;;;;;;5.55;4.45;;;;;;;13.68;90.23;93703.23;1734906;82;21082;-54
2022/05/30 05:17:32;;;;;;;6.42;4.05;;;;;;;13.75;89.75;93711.05;1732292;82;21471;-53
2022/05/30 05:20:00;;;;;;;5.15;4.65;;;;;;;13.82;89.46;93705.84;1737595;82;20955;-54
2022/05/30 05:22:26;;;;;;;5.90;4.75;;;;;;;13.91;88.87;93700.13;1717230;82;21399;-53
2022/05/30 05:24:53;;;;;;;5.33;4.83;;;;;;;13.98;88.42;93696.89;1737156;82;21065;-52
2022/05/30 05:27:38;;;;;;;6.78;4.60;;;;;;;14.05;87.93;93697.83;1737756;82;21093;-53
2022/05/30 05:30:07;;;;;;;4.15;3.72;;;;;;;14.16;87.38;93709.61;1731097;82;20936;-54
2022/05/30 05:32:34;;;;;;;4.45;4.05;;;;;;;14.29;86.44;93718.20;1733099;82;20956;-53
2022/05/30 05:35:01;;;;;;;6.22;4.12;;;;;;;14.33;85.60;93713.22;1714142;82;21117;-52
2022/05/30 05:37:28;;;;;;;3.67;3.37;;;;;;;14.38;85.28;93715.25;1731093;82;20976;-53
2022/05/30 05:40:14;;;;;;;4.22;3.83;;;;;;;14.46;85.11;93714.28;1735001;82;20910;-53
2022/05/30 05:42:41;;;;;;;5.85;4.83;;;;;;;14.59;84.80;93721.52;1716566;82;21015;-53
2022/05/30 05:45:09;;;;;;;4.60;4.22;;;;;;;14.65;84.29;93725.80;1734796;82;20960;-54
2022/05/30 05:47:35;;;;;;;10.58;5.03;;;;;;;14.73;84.49;93715.78;1733846;82;21082;-57
2022/05/30 05:50:04;;;;;;;5.95;5.33;;;;;;;14.78;84.46;93715.03;1693350;82;21039;-58
2022/05/30 05:52:32;;;;;;;5.10;3.70;;;;;;;14.91;84.50;93711.17;1734506;82;20923;-56
2022/05/30 05:55:01;;;;;;;3.70;3.40;;;;;;;15.13;84.32;93723.69;1736278;82;20984;-57
2022/05/30 05:57:30;;;;;;;3.12;2.92;;;;;;;15.27;83.30;93724.09;1714889;82;20947;-59
2022/05/30 05:59:59;;;;;;;3.50;3.20;;;;;;;15.36;81.93;93716.95;1732825;82;21264;-59
2022/05/30 06:02:30;;;;;;;3.20;2.98;;;;;;;15.45;81.80;93727.03;1725338;82;21004;-58
2022/05/30 06:05:01;;;;;;;3.02;2.72;;;;;;;15.56;82.17;93711.16;1733518;82;20952;-56
2022/05/30 06:07:34;;;;;;;5.60;4.10;;;;;;;15.74;81.49;93716.20;1717708;82;20971;-56
2022/05/30 06:10:13;;;;;;;4.00;3.70;;;;;;;15.92;80.65;93726.78;1731751;82;21520;-60
2022/05/30 06:12:46;;;;;;;3.08;2.83;;;;;;;16.04;80.14;93724.12;1731726;82;21447;-59
2022/05/30 06:15:18;;;;;;;5.50;2.50;;;;;;;16.10;79.67;93726.91;1738247;82;20903;-59
2022/05/30 06:17:50;;;;;;;2.72;2.52;;;;;;;16.20;79.48;93727.52;1732537;82;20986;-59
2022/05/30 06:20:20;;;;;;;2.67;2.45;;;;;;;16.37;78.77;93733.82;1712711;83;21047;-60
2022/05/30 06:22:50;;;;;;;3.42;3.05;;;;;;;16.50;78.35;93724.30;1736653;82;20955;-58
2022/05/30 06:25:38;;;;;;;5.25;3.62;;;;;;;16.59;77.62;93726.19;1717356;82;21226;-59
2022/05/30 06:28:25;;;;;;;3.30;3.00;;;;;;;16.67;77.76;93729.94;1735872;82;21089;-58
2022/05/30 06:30:58;;;;;;;5.67;4.70;;;;;;;16.75;78.04;93724.61;1736339;82;21015;-58
2022/05/30 06:33:28;;;;;;;4.22;3.05;;;;;;;16.83;77.59;93729.73;1731694;82;21008;-56
2022/05/30 06:36:02;;;;;;;5.35;4.58;;;;;;;16.91;77.29;93718.23;1717431;82;20951;-55
2022/05/30 06:38:33;;;;;;;3.85;3.47;;;;;;;16.98;77.06;93720.45;1718873;82;21498;-58
2022/05/30 06:41:26;;;;;;;5.33;4.70;;;;;;;16.98;75.75;93726.78;1739021;82;21038;-55
2022/05/30 06:44:06;;;;;;;2.00;1.90;;;;;;;16.99;75.92;93731.69;1714739;82;20939;-54
2022/05/30 06:47:05;;;;;;;2.62;2.42;;;;;;;17.08;76.09;93728.63;1717756;82;20999;-55
2022/05/30 06:49:53;;;;;;;2.67;2.42;;;;;;;17.26;75.55;93734.97;1731143;82;21056;-53
2022/05/30 06:52:23;;;;;;;2.60;2.40;;;;;;;17.40;75.99;93733.27;1730722;82;21253;-53
2022/05/30 06:54:54;;;;;;;2.77;2.58;;;;;;;17.58;77.22;93740.21;1689829;83;21056;-52
2022/05/30 07:04:53;;;;;;;2.80;2.60;;;;;;;18.57;75.87;93739.50;1887339;74;23960;-58
2022/05/30 07:07:40;;;;;;;1.67;1.55;;;;;;;18.76;75.44;93738.91;1877465;76;21052;-58
2022/05/30 07:10:10;;;;;;;1.05;1.05;;;;;;;18.97;72.50;93728.78;1854531;76;21815;-55
2022/05/30 07:12:46;;;;;;;1.37;1.27;;;;;;;19.18;70.86;93735.37;1850792;76;21049;-57
2022/05/30 07:15:15;;;;;;;1.80;1.70;;;;;;;19.38;68.25;93739.03;1881973;75;21548;-54
2022/05/30 07:17:43;;;;;;;5.33;1.50;;;;;;;19.53;67.11;93740.73;1884496;75;21033;-53
2022/05/30 07:20:12;;;;;;;1.70;1.30;;;;;;;19.61;66.06;93747.23;1885161;75;21088;-53
2022/05/30 07:23:01;;;;;;;0.90;0.90;;;;;;;19.67;65.21;93745.73;1856613;76;22191;-52
2022/05/30 07:25:46;;;;;;;1.98;0.93;;;;;;;19.78;64.85;93758.14;1867679;75;22284;-52
2022/05/30 07:28:33;;;;;;;2.47;1.10;;;;;;;19.90;63.13;93756.03;1764801;80;21120;-56
2022/05/30 07:31:22;;;;;;;2.02;1.37;;;;;;;20.02;62.42;93773.40;1765580;79;21010;-54
2022/05/30 07:34:07;;;;;;;6.72;1.90;;;;;;;20.13;62.25;93776.77;1818968;76;21520;-55
2022/05/30 07:36:43;;;;;;;1.50;1.40;;;;;;;20.32;61.76;93788.64;1765278;77;21148;-56
2022/05/30 07:39:19;;;;;;;5.33;3.27;;;;;;;20.44;60.66;93792.77;1780933;78;21017;-54
2022/05/30 07:42:10;;;;;;;4.58;3.70;;;;;;;20.48;60.18;93794.60;1745583;81;21103;-53
2022/05/30 07:44:55;;;;;;;1.82;1.72;;;;;;;20.47;58.74;93794.49;1739923;81;21072;-52
2022/05/30 07:47:30;;;;;;;1.65;1.50;;;;;;;20.47;58.29;93798.69;1784825;77;21712;-52
2022/05/30 07:50:02;;;;;;;3.92;2.98;;;;;;;20.51;58.36;93807.50;1798182;79;21223;-52
2022/05/30 07:52:34;;;;;;;1.85;1.57;;;;;;;20.56;59.40;93810.87;1809708;78;21060;-54
2022/05/30 07:55:11;;;;;;;2.55;1.20;;;;;;;20.60;58.09;93815.49;1798173;79;21535;-54
2022/05/30 07:57:50;;;;;;;1.80;1.45;;;;;;;20.58;56.79;93813.88;1830143;77;21054;-55
2022/05/30 08:00:20;;;;;;;1.77;1.50;;;;;;;20.53;58.81;93830.10;1812734;78;21464;-52
2022/05/30 08:02:53;;;;;;;2.00;1.50;;;;;;;20.52;56.95;93827.20;1811741;77;21146;-52
2022/05/30 08:05:29;;;;;;;6.10;3.45;;;;;;;20.49;56.66;93845.01;1811692;77;21041;-58
2022/05/30 08:08:15;;;;;;;5.17;1.80;;;;;;;20.41;56.65;93860.91;1783753;78;21098;-55
2022/05/30 08:10:48;;;;;;;7.95;3.95;;;;;;;20.28;56.81;93860.84;1802536;77;21008;-55
2022/05/30 08:13:17;;;;;;;11.93;4.90;;;;;;;20.25;57.42;93861.91;1818187;77;20970;-52
2022/05/30 08:15:56;;;;;;;4.90;4.40;;;;;;;20.27;57.12;93861.50;1803312;77;21397;-56
2022/05/30 08:18:26;;;;;;;5.58;4.40;;;;;;;20.35;56.58;93860.24;1742726;80;21116;-58
2022/05/30 08:20:55;;;;;;;6.35;3.40;;;;;;;20.38;56.32;93868.95;1802079;77;20954;-56
2022/05/30 08:23:25;;;;;;;8.93;3.85;;;;;;;20.41;56.21;93866.48;1803202;77;21094;-54
2022/05/30 08:25:56;;;;;;;7.55;3.80;;;;;;;20.41;57.70;93872.08;1795141;77;21167;-56
2022/05/30 08:28:29;;;;;;;7.58;6.30;;;;;;;20.46;57.55;93867.04;1794780;78;21124;-56
2022/05/30 08:30:56;;;;;;;5.35;4.65;;;;;;;20.48;56.27;93856.84;1808254;77;20968;-58
2022/05/30 08:33:43;;;;;;;3.62;3.33;;;;;;;20.51;56.51;93850.81;1792727;77;21846;-56
2022/05/30 08:36:29;;;;;;;4.28;3.20;;;;;;;20.56;56.99;93861.17;1781685;77;21472;-61
2022/05/30 08:41:46;;;;;;;3.65;3.33;;;;;;;20.59;56.92;93860.10;1824129;77;21096;-55
2022/05/30 08:41:49;;;;;;;3.75;1.92;;;;;;;20.60;56.76;93867.20;1785750;79;21254;-58
2022/05/30 08:44:18;;;;;;;1.30;1.20;;;;;;;20.61;56.47;93865.91;1758927;79;21046;-54
2022/05/30 08:47:27;;;;;;;2.87;2.33;;;;;;;20.60;56.13;93879.12;1778161;80;21043;-54
2022/05/30 08:49:53;;;;;;;4.87;3.37;;;;;;;20.50;56.38;93873.83;1784485;78;21498;-55
2022/05/30 08:52:53;;;;;;;1.72;1.62;;;;;;;20.43;56.67;93879.28;1785081;79;21502;-60
2022/05/30 08:55:31;;;;;;;2.37;1.50;;;;;;;20.36;54.97;93893.88;1783804;79;21233;-56
2022/05/30 08:58:25;;;;;;;6.17;3.37;;;;;;;20.21;54.97;93892.93;1778042;79;21053;-58
2022/05/30 09:01:00;;;;;;;10.70;2.20;;;;;;;20.18;56.04;93892.59;1783939;79;20973;-59
2022/05/30 09:04:09;;;;;;;6.30;1.70;;;;;;;20.24;56.04;93887.70;1772562;79;21030;-59
2022/05/30 09:06:50;;;;;;;6.72;1.85;;;;;;;20.36;56.51;93893.88;1759813;80;21157;-58
2022/05/30 09:09:31;;;;;;;8.83;2.30;;;;;;;20.44;56.52;93894.77;1787221;79;21181;-56
2022/05/30 09:12:12;;;;;;;4.72;2.85;;;;;;;20.48;56.71;93899.39;1694249;83;21034;-56
2022/05/30 09:14:55;;;;;;;2.70;2.10;;;;;;;20.43;55.49;93918.41;1700268;83;21184;-55
2022/05/30 09:17:44;;;;;;;3.30;2.77;;;;;;;20.24;54.59;93917.66;1699274;83;21098;-57
2022/05/30 09:20:15;;;;;;;2.20;1.70;;;;;;;20.04;55.64;93927.97;1666202;84;21482;-56
2022/05/30 09:22:47;;;;;;;3.77;1.50;;;;;;;19.94;55.45;93922.60;1668685;84;21912;-61
2022/05/30 09:28:08;;;;;;;2.90;1.90;;;;;;;19.91;54.71;93920.87;1710099;83;21057;-54
2022/05/30 09:31:23;;;;;;;4.87;2.70;;;;;;;19.83;55.37;93922.77;1689744;83;21566;-58
2022/05/30 09:34:38;;;;;;;3.60;2.00;;;;;;;19.74;55.76;93936.33;1702451;83;21573;-56
2022/05/30 09:37:32;;;;;;;3.98;2.40;;;;;;;19.67;55.62;93937.67;1694130;83;21140;-58
2022/05/30 09:40:11;;;;;;;3.98;1.67;;;;;;;19.64;56.41;93946.33;1695716;82;22236;-57
2022/05/30 09:42:55;;;;;;;14.87;2.25;;;;;;;19.67;55.68;93947.44;1734071;80;21033;-57
2022/05/30 09:45:28;;;;;;;4.25;2.17;;;;;;;19.67;56.24;93960.00;1761197;79;21625;-55
2022/05/30 09:48:11;;;;;;;8.83;2.15;;;;;;;19.71;55.48;93967.43;1752599;80;21055;-56
2022/05/30 09:50:49;;;;;;;3.42;2.10;;;;;;;19.71;55.46;93964.64;1736247;80;21349;-57
2022/05/30 09:53:45;;;;;;;2.72;2.00;;;;;;;19.68;54.84;93966.31;1777212;79;21161;-53
2022/05/30 09:56:15;;;;;;;6.17;3.42;;;;;;;19.60;54.24;93957.77;1768630;79;21128;-54
2022/05/30 09:58:49;;;;;;;5.20;3.98;;;;;;;19.55;55.16;93964.18;1729885;81;21051;-54
2022/05/30 10:01:35;;;;;;;3.45;3.10;;;;;;;19.53;54.75;93966.00;1728893;82;21106;-54
2022/05/30 10:04:38;;;;;;;8.30;2.75;;;;;;;19.54;55.46;93972.44;1712765;82;21163;-57
2022/05/30 10:07:18;;;;;;;3.45;1.90;;;;;;;19.58;56.30;93969.36;1742273;82;21023;-54
2022/05/30 10:10:00;;;;;;;8.50;4.17;;;;;;;19.56;56.24;93969.88;1749074;82;21141;-57
2022/05/30 10:12:44;;;;;;;4.97;2.20;;;;;;;19.56;56.60;93971.92;1749240;81;21149;-58
2022/05/30 10:15:32;;;;;;;3.98;2.52;;;;;;;19.71;55.94;93975.06;1740012;81;21452;-54
2022/05/30 10:18:25;;;;;;;5.97;2.62;;;;;;;19.82;54.69;93986.86;1765518;79;21098;-55
2022/05/30 10:21:35;;;;;;;5.20;2.00;;;;;;;19.90;53.69;93980.78;1738074;81;22159;-56
2022/05/30 10:31:15;;;;;;;4.95;2.12;;;;;;;20.07;52.88;94005.77;1734021;81;21043;-53
2022/05/30 10:34:23;;;;;;;10.00;3.17;;;;;;;20.06;53.54;94005.63;1793587;79;21111;-56
2022/05/30 10:37:21;;;;;;;3.98;2.17;;;;;;;20.20;54.50;94013.59;1798356;79;21076;-54
2022/05/30 10:40:24;;;;;;;2.65;1.90;;;;;;;20.49;52.63;94003.67;1794165;78;21011;-53
2022/05/30 10:43:09;;;;;;;2.85;2.02;;;;;;;20.99;51.22;94003.73;1779591;80;21051;-54
2022/05/30 10:46:03;;;;;;;4.35;2.15;;;;;;;21.44;49.45;94012.89;1764421;81;22240;-60
2022/05/30 10:48:33;;;;;;;3.87;2.02;;;;;;;21.76;50.30;94017.83;1769299;79;22097;-55
2022/05/30 10:51:22;;;;;;;3.52;1.85;;;;;;;22.16;48.72;94023.55;1695630;82;21077;-56
2022/05/30 10:54:21;;;;;;;5.15;1.87;;;;;;;22.40;47.40;94038.13;1710075;81;21497;-57
2022/05/30 10:56:57;;;;;;;2.25;1.70;;;;;;;22.66;46.79;94028.92;1750078;82;22145;-55
2022/05/30 10:59:34;;;;;;;7.37;4.47;;;;;;;22.95;46.89;94037.56;1789249;79;21091;-57
2022/05/30 11:02:11;;;;;;;8.63;4.08;;;;;;;23.29;46.45;94033.48;1770960;79;21259;-55
2022/05/30 11:04:58;;;;;;;8.38;2.22;;;;;;;23.62;45.07;94038.29;1789699;77;21051;-55
2022/05/30 11:07:38;;;;;;;4.08;2.98;;;;;;;23.86;43.62;94044.20;1779612;78;21035;-57
2022/05/30 11:10:36;;;;;;;4.58;2.42;;;;;;;24.16;43.69;94039.55;1800021;77;20974;-57
2022/05/30 11:13:18;;;;;;;8.33;2.58;;;;;;;24.43;42.87;94045.08;1706656;82;21071;-55
2022/05/30 11:15:54;;;;;;;5.22;2.05;;;;;;;24.68;42.85;94040.53;1785523;78;21238;-55
2022/05/30 11:19:03;;;;;;;4.75;1.60;;;;;;;24.98;41.93;94049.12;1761421;78;20976;-53
2022/05/30 11:21:46;;;;;;;2.90;1.50;;;;;;;25.39;41.78;94038.38;1803675;77;20975;-55
2022/05/30 11:24:13;;;;;;;2.42;1.40;;;;;;;25.79;38.80;94045.64;1764145;79;21018;-54
2022/05/30 11:27:01;;;;;;;1.47;1.37;;;;;;;25.84;38.51;94057.41;1728596;79;20975;-55
2022/05/30 11:30:15;;;;;;;3.80;1.62;;;;;;;25.81;38.68;94050.08;1777886;79;21137;-55
2022/05/30 11:33:08;;;;;;;4.53;1.67;;;;;;;26.08;38.67;94061.86;1758061;80;20984;-54
2022/05/30 11:36:19;;;;;;;2.95;1.27;;;;;;;26.41;37.14;94057.20;1786316;78;21060;-56
2022/05/30 11:38:59;;;;;;;2.33;1.70;;;;;;;26.54;36.38;94061.27;1780926;78;21081;-54
2022/05/30 11:41:44;;;;;;;7.78;1.67;;;;;;;26.66;37.60;94053.88;1788645;78;21491;-56
2022/05/30 11:44:32;;;;;;;8.00;2.87;;;;;;;26.91;35.66;94066.70;1784699;78;21352;-58
2022/05/30 11:47:31;;;;;;;5.53;2.05;;;;;;;27.14;35.80;94066.73;1756506;80;21022;-56
2022/05/30 11:50:36;;;;;;;5.22;1.75;;;;;;;27.41;35.03;94064.89;1780590;79;21624;-56
2022/05/30 11:53:49;;;;;;;6.00;1.30;;;;;;;27.57;34.77;94076.20;1775820;78;21418;-57
2022/05/30 11:56:44;;;;;;;13.98;6.92;;;;;;;27.75;33.76;94067.92;1719196;82;21022;-54
2022/05/30 11:59:45;;;;;;;10.75;4.42;;;;;;;28.01;33.81;94068.11;1702619;82;21249;-54
2022/05/30 12:02:17;;;;;;;4.17;2.47;;;;;;;28.23;32.39;94071.41;1704590;82;21026;-58
2022/05/30 12:04:54;;;;;;;7.00;2.87;;;;;;;28.35;31.49;94083.04;1675154;84;21053;-58
2022/05/30 12:07:43;;;;;;;4.00;2.17;;;;;;;28.28;30.98;94080.35;1669480;84;21538;-55
2022/05/30 12:10:43;;;;;;;2.65;1.32;;;;;;;28.13;31.65;94073.40;1678910;84;21561;-60
2022/05/30 12:13:49;;;;;;;2.47;1.87;;;;;;;27.74;31.78;94089.72;1674845;84;21078;-57
2022/05/30 12:16:42;;;;;;;4.42;1.50;;;;;;;27.65;31.84;94081.17;1679578;84;21225;-56
2022/05/30 12:25:41;;;;;;;4.10;1.00;;;;;;;28.46;30.09;94089.00;1678485;83;20995;-55
2022/05/30 12:28:34;;;;;;;3.08;1.35;;;;;;;28.45;30.09;94075.41;1674162;84;21946;-61
2022/05/30 12:31:04;;;;;;;1.90;1.00;;;;;;;28.59;31.16;94085.09;1680001;84;21837;-59
2022/05/30 12:33:36;;;;;;;5.05;1.22;;;;;;;28.99;29.39;94086.37;1676102;84;21111;-58
2022/05/30 12:36:17;;;;;;;3.20;1.40;;;;;;;29.25;29.65;94087.78;1686385;83;21216;-60
2022/05/30 12:38:56;;;;;;;;;;;;;;;29.61;29.29;94090.09;1679096;84;21571;-55
2022/05/30 12:41:31;;;;;;;2.75;1.22;;;;;;;29.86;28.80;94088.53;1632425;86;21801;-54
2022/05/30 12:43:59;;;;;;;2.65;0.70;;;;;;;29.99;28.26;94098.13;1642331;86;21020;-55
2022/05/30 12:46:28;;;;;;;6.53;1.65;;;;;;;30.18;28.08;94093.26;1654748;85;21068;-60
2022/05/30 12:49:05;;;;;;;6.37;1.35;;;;;;;30.31;27.93;94100.70;1639525;84;21659;-55